PWSweather.com
Personal Weather Stations
Station Observations
KMIEASTT1
Tawas Bay, East Tawas, MI 48730

Tawas BayEast Tawas, MI 48730

Lat: 44.28, Lon: -83.48

Elevation: 600

Station Type: Davis VantagePro

http://www.tawasbayweather.com

High Low Average
Temperature 32.0°F0.0°C 27.3°F-2.6°C 29.3°F-1.5°C
Dew Point 29.5°F-1.4°C 23.4°F-4.8°C 26.4°F-3.1°C
Winds 12.0 mph 19.3 kmh 5.0 mph 8.0 kmh 8.0 mph SW12.9 kmh SW
Wind Gusts 16.0 mph25.7 kmh 7.0 mph11.3 kmh 10.0 mph16.1 kmh
Humidity 92% 78% 89%
Pressure 29.96 in1014.6 mb 29.86 in1011.2 mb -
Precipitation 0.00 in0.0 mm - -
Hour Temp Dew Point Humidity Winds Wind Gusts Pressure Precip Precip Rate Daily Precip Total
12:02 AM 29.5°F-1.4°C 23.5°F-4.7°C 78% 12.0 mph SW19.3 kmh SW 16.0 mph25.7 kmh 29.95 in1014.2 mb 0.00 in0.0 mm 0.00 in/hr0.0 mm/hr 0.00 in0.0 mm
12:16 AM 29.1°F-1.6°C 23.7°F-4.6°C 80% 11.0 mph SW17.7 kmh SW 14.0 mph22.5 kmh 29.96 in1014.6 mb 0.00 in0.0 mm 0.00 in/hr0.0 mm/hr 0.00 in0.0 mm
12:31 AM 28.4°F-2.0°C 23.9°F-4.5°C 83% 10.0 mph SW16.1 kmh SW 15.0 mph24.1 kmh 29.96 in1014.6 mb 0.00 in0.0 mm 0.00 in/hr0.0 mm/hr 0.00 in0.0 mm
12:46 AM 28.1°F-2.2°C 23.9°F-4.5°C 84% 12.0 mph SW19.3 kmh SW 16.0 mph25.7 kmh 29.96 in1014.6 mb 0.00 in0.0 mm 0.00 in/hr0.0 mm/hr 0.00 in0.0 mm
01:02 AM 28.0°F-2.2°C 24.4°F-4.2°C 86% 8.0 mph SW12.9 kmh SW 12.0 mph19.3 kmh 29.95 in1014.2 mb 0.00 in0.0 mm 0.00 in/hr0.0 mm/hr 0.00 in0.0 mm
01:16 AM 27.9°F-2.3°C 24.0°F-4.4°C 85% 10.0 mph SW16.1 kmh SW 12.0 mph19.3 kmh 29.95 in1014.2 mb 0.00 in0.0 mm 0.00 in/hr0.0 mm/hr 0.00 in0.0 mm
01:30 AM 27.9°F-2.3°C 23.7°F-4.6°C 84% 8.0 mph SW12.9 kmh SW 12.0 mph19.3 kmh 29.95 in1014.2 mb 0.00 in0.0 mm 0.00 in/hr0.0 mm/hr 0.00 in0.0 mm
01:45 AM 27.9°F-2.3°C 23.4°F-4.8°C 83% 8.0 mph SW12.9 kmh SW 13.0 mph20.9 kmh 29.94 in1013.9 mb 0.00 in0.0 mm 0.00 in/hr0.0 mm/hr 0.00 in0.0 mm
02:01 AM 27.8°F-2.3°C 23.6°F-4.7°C 84% 10.0 mph SW16.1 kmh SW 11.0 mph17.7 kmh 29.94 in1013.9 mb 0.00 in0.0 mm 0.00 in/hr0.0 mm/hr 0.00 in0.0 mm
02:15 AM 27.8°F-2.3°C 23.6°F-4.7°C 84% 10.0 mph SW16.1 kmh SW 12.0 mph19.3 kmh 29.94 in1013.9 mb 0.00 in0.0 mm 0.00 in/hr0.0 mm/hr 0.00 in0.0 mm
02:31 AM 27.6°F-2.4°C 24.2°F-4.3°C 87% 7.0 mph SW11.3 kmh SW 12.0 mph19.3 kmh 29.94 in1013.9 mb 0.00 in0.0 mm 0.00 in/hr0.0 mm/hr 0.00 in0.0 mm
02:45 AM 27.6°F-2.4°C 24.2°F-4.3°C 87% 7.0 mph SW11.3 kmh SW 11.0 mph17.7 kmh 29.94 in1013.9 mb 0.00 in0.0 mm 0.00 in/hr0.0 mm/hr 0.00 in0.0 mm
03:01 AM 27.5°F-2.5°C 23.9°F-4.5°C 86% 10.0 mph SW16.1 kmh SW 11.0 mph17.7 kmh 29.94 in1013.9 mb 0.00 in0.0 mm 0.00 in/hr0.0 mm/hr 0.00 in0.0 mm
03:16 AM 27.5°F-2.5°C 23.9°F-4.5°C 86% 9.0 mph SW14.5 kmh SW 11.0 mph17.7 kmh 29.94 in1013.9 mb 0.00 in0.0 mm 0.00 in/hr0.0 mm/hr 0.00 in0.0 mm
03:31 AM 27.6°F-2.4°C 24.0°F-4.4°C 86% 7.0 mph SW11.3 kmh SW 9.0 mph14.5 kmh 29.93 in1013.5 mb 0.00 in0.0 mm 0.00 in/hr0.0 mm/hr 0.00 in0.0 mm
03:45 AM 27.5°F-2.5°C 23.9°F-4.5°C 86% 5.0 mph SW8.0 kmh SW 9.0 mph14.5 kmh 29.93 in1013.5 mb 0.00 in0.0 mm 0.00 in/hr0.0 mm/hr 0.00 in0.0 mm
04:01 AM 27.4°F-2.6°C 24.1°F-4.4°C 87% 5.0 mph SW8.0 kmh SW 7.0 mph11.3 kmh 29.93 in1013.5 mb 0.00 in0.0 mm 0.00 in/hr0.0 mm/hr 0.00 in0.0 mm
04:16 AM 27.3°F-2.6°C 24.2°F-4.3°C 88% 5.0 mph SW8.0 kmh SW 7.0 mph11.3 kmh 29.93 in1013.5 mb 0.00 in0.0 mm 0.00 in/hr0.0 mm/hr 0.00 in0.0 mm
04:31 AM 27.4°F-2.6°C 24.6°F-4.1°C 89% 7.0 mph SSW11.3 kmh SSW 7.0 mph11.3 kmh 29.92 in1013.2 mb 0.00 in0.0 mm 0.00 in/hr0.0 mm/hr 0.00 in0.0 mm
04:46 AM 27.3°F-2.6°C 24.5°F-4.2°C 89% 5.0 mph SW8.0 kmh SW 7.0 mph11.3 kmh 29.92 in1013.2 mb 0.00 in0.0 mm 0.00 in/hr0.0 mm/hr 0.00 in0.0 mm
05:02 AM 27.3°F-2.6°C 24.5°F-4.2°C 89% 6.0 mph SW9.7 kmh SW 8.0 mph12.9 kmh 29.92 in1013.2 mb 0.00 in0.0 mm 0.00 in/hr0.0 mm/hr 0.00 in0.0 mm
05:16 AM 27.4°F-2.6°C 24.6°F-4.1°C 89% 6.0 mph SW9.7 kmh SW 8.0 mph12.9 kmh 29.92 in1013.2 mb 0.00 in0.0 mm 0.00 in/hr0.0 mm/hr 0.00 in0.0 mm
05:31 AM 27.5°F-2.5°C 24.7°F-4.1°C 89% 6.0 mph SW9.7 kmh SW 10.0 mph16.1 kmh 29.92 in1013.2 mb 0.00 in0.0 mm 0.00 in/hr0.0 mm/hr 0.00 in0.0 mm
05:46 AM 27.5°F-2.5°C 24.4°F-4.2°C 88% 6.0 mph SW9.7 kmh SW 9.0 mph14.5 kmh 29.92 in1013.2 mb 0.00 in0.0 mm 0.00 in/hr0.0 mm/hr 0.00 in0.0 mm
06:01 AM 27.6°F-2.4°C 24.5°F-4.2°C 88% 7.0 mph SW11.3 kmh SW 9.0 mph14.5 kmh 29.92 in1013.2 mb 0.00 in0.0 mm 0.00 in/hr0.0 mm/hr 0.00 in0.0 mm
06:16 AM 27.6°F-2.4°C 24.5°F-4.2°C 88% 7.0 mph SW11.3 kmh SW 9.0 mph14.5 kmh 29.92 in1013.2 mb 0.00 in0.0 mm 0.00 in/hr0.0 mm/hr 0.00 in0.0 mm
06:31 AM 27.7°F-2.4°C 24.3°F-4.3°C 87% 8.0 mph SW12.9 kmh SW 11.0 mph17.7 kmh 29.91 in1012.9 mb 0.00 in0.0 mm 0.00 in/hr0.0 mm/hr 0.00 in0.0 mm
06:47 AM 27.6°F-2.4°C 24.2°F-4.3°C 87% 7.0 mph SW11.3 kmh SW 10.0 mph16.1 kmh 29.91 in1012.9 mb 0.00 in0.0 mm 0.00 in/hr0.0 mm/hr 0.00 in0.0 mm
07:01 AM 27.7°F-2.4°C 24.9°F-3.9°C 89% 9.0 mph SW14.5 kmh SW 11.0 mph17.7 kmh 29.90 in1012.5 mb 0.00 in0.0 mm 0.00 in/hr0.0 mm/hr 0.00 in0.0 mm
07:15 AM 27.7°F-2.4°C 24.9°F-3.9°C 89% 7.0 mph SSW11.3 kmh SSW 10.0 mph16.1 kmh 29.89 in1012.2 mb 0.00 in0.0 mm 0.00 in/hr0.0 mm/hr 0.00 in0.0 mm
07:31 AM 27.8°F-2.3°C 25.3°F-3.7°C 90% 7.0 mph SW11.3 kmh SW 9.0 mph14.5 kmh 29.89 in1012.2 mb 0.00 in0.0 mm 0.00 in/hr0.0 mm/hr 0.00 in0.0 mm
07:45 AM 27.9°F-2.3°C 25.4°F-3.7°C 90% 7.0 mph SSW11.3 kmh SSW 10.0 mph16.1 kmh 29.89 in1012.2 mb 0.00 in0.0 mm 0.00 in/hr0.0 mm/hr 0.00 in0.0 mm
08:01 AM 27.9°F-2.3°C 25.1°F-3.8°C 89% 9.0 mph SSW14.5 kmh SSW 11.0 mph17.7 kmh 29.89 in1012.2 mb 0.00 in0.0 mm 0.00 in/hr0.0 mm/hr 0.00 in0.0 mm
08:16 AM 27.9°F-2.3°C 25.4°F-3.7°C 90% 8.0 mph SW12.9 kmh SW 13.0 mph20.9 kmh 29.89 in1012.2 mb 0.00 in0.0 mm 0.00 in/hr0.0 mm/hr 0.00 in0.0 mm
08:46 AM 28.2°F-2.1°C 26.2°F-3.2°C 92% 8.0 mph SSW12.9 kmh SSW 9.0 mph14.5 kmh 29.90 in1012.5 mb 0.00 in0.0 mm 0.00 in/hr0.0 mm/hr 0.00 in0.0 mm
09:03 AM 28.2°F-2.1°C 26.2°F-3.2°C 92% 10.0 mph S16.1 kmh S 10.0 mph16.1 kmh 29.89 in1012.2 mb 0.00 in0.0 mm 0.00 in/hr0.0 mm/hr 0.00 in0.0 mm
09:17 AM 28.3°F-2.1°C 26.0°F-3.3°C 91% 7.0 mph SW11.3 kmh SW 11.0 mph17.7 kmh 29.90 in1012.5 mb 0.00 in0.0 mm 0.00 in/hr0.0 mm/hr 0.00 in0.0 mm
09:30 AM 28.3°F-2.1°C 26.0°F-3.3°C 91% 8.0 mph SW12.9 kmh SW 12.0 mph19.3 kmh 29.89 in1012.2 mb 0.00 in0.0 mm 0.00 in/hr0.0 mm/hr 0.00 in0.0 mm
09:46 AM 28.4°F-2.0°C 26.1°F-3.3°C 91% 10.0 mph SSW16.1 kmh SSW 11.0 mph17.7 kmh 29.89 in1012.2 mb 0.00 in0.0 mm 0.00 in/hr0.0 mm/hr 0.00 in0.0 mm
10:02 AM 28.4°F-2.0°C 26.4°F-3.1°C 92% 6.0 mph SSW9.7 kmh SSW 11.0 mph17.7 kmh 29.89 in1012.2 mb 0.00 in0.0 mm 0.00 in/hr0.0 mm/hr 0.00 in0.0 mm
10:16 AM 28.7°F-1.8°C 26.4°F-3.1°C 91% 6.0 mph SSW9.7 kmh SSW 10.0 mph16.1 kmh 29.89 in1012.2 mb 0.00 in0.0 mm 0.00 in/hr0.0 mm/hr 0.00 in0.0 mm
10:31 AM 29.0°F-1.7°C 27.0°F-2.8°C 92% 7.0 mph SW11.3 kmh SW 10.0 mph16.1 kmh 29.89 in1012.2 mb 0.00 in0.0 mm 0.00 in/hr0.0 mm/hr 0.00 in0.0 mm
10:46 AM 29.1°F-1.6°C 26.8°F-2.9°C 91% 7.0 mph SSW11.3 kmh SSW 9.0 mph14.5 kmh 29.89 in1012.2 mb 0.00 in0.0 mm 0.00 in/hr0.0 mm/hr 0.00 in0.0 mm
11:02 AM 29.4°F-1.4°C 27.1°F-2.7°C 91% 7.0 mph SSW11.3 kmh SSW 9.0 mph14.5 kmh 29.88 in1011.9 mb 0.00 in0.0 mm 0.00 in/hr0.0 mm/hr 0.00 in0.0 mm
11:16 AM 29.6°F-1.3°C 27.0°F-2.8°C 90% 8.0 mph SSW12.9 kmh SSW 10.0 mph16.1 kmh 29.88 in1011.9 mb 0.00 in0.0 mm 0.00 in/hr0.0 mm/hr 0.00 in0.0 mm
11:31 AM 29.7°F-1.3°C 27.1°F-2.7°C 90% 7.0 mph SSW11.3 kmh SSW 9.0 mph14.5 kmh 29.88 in1011.9 mb 0.00 in0.0 mm 0.00 in/hr0.0 mm/hr 0.00 in0.0 mm
11:46 AM 29.9°F-1.2°C 27.3°F-2.6°C 90% 8.0 mph SW12.9 kmh SW 10.0 mph16.1 kmh 29.89 in1012.2 mb 0.00 in0.0 mm 0.00 in/hr0.0 mm/hr 0.00 in0.0 mm
12:01 PM 30.0°F-1.1°C 27.2°F-2.7°C 89% 6.0 mph SSW9.7 kmh SSW 8.0 mph12.9 kmh 29.88 in1011.9 mb 0.00 in0.0 mm 0.00 in/hr0.0 mm/hr 0.00 in0.0 mm
12:16 PM 30.2°F-1.0°C 27.6°F-2.4°C 90% 7.0 mph SSW11.3 kmh SSW 8.0 mph12.9 kmh 29.88 in1011.9 mb 0.00 in0.0 mm 0.00 in/hr0.0 mm/hr 0.00 in0.0 mm
12:31 PM 30.5°F-0.8°C 28.2°F-2.1°C 91% 7.0 mph S11.3 kmh S 8.0 mph12.9 kmh 29.88 in1011.9 mb 0.00 in0.0 mm 0.00 in/hr0.0 mm/hr 0.00 in0.0 mm
12:46 PM 30.8°F-0.7°C 28.5°F-1.9°C 91% 7.0 mph SSW11.3 kmh SSW 8.0 mph12.9 kmh 29.87 in1011.5 mb 0.00 in0.0 mm 0.00 in/hr0.0 mm/hr 0.00 in0.0 mm
01:02 PM 31.0°F-0.6°C 28.4°F-2.0°C 90% 7.0 mph SW11.3 kmh SW 8.0 mph12.9 kmh 29.87 in1011.5 mb 0.00 in0.0 mm 0.00 in/hr0.0 mm/hr 0.00 in0.0 mm
01:16 PM 31.1°F-0.5°C 28.2°F-2.1°C 89% 6.0 mph SSW9.7 kmh SSW 9.0 mph14.5 kmh 29.86 in1011.2 mb 0.00 in0.0 mm 0.00 in/hr0.0 mm/hr 0.00 in0.0 mm
01:31 PM 31.2°F-0.4°C 28.3°F-2.1°C 89% 7.0 mph SW11.3 kmh SW 8.0 mph12.9 kmh 29.86 in1011.2 mb 0.00 in0.0 mm 0.00 in/hr0.0 mm/hr 0.00 in0.0 mm
01:46 PM 31.4°F-0.3°C 28.8°F-1.8°C 90% 7.0 mph SSW11.3 kmh SSW 9.0 mph14.5 kmh 29.86 in1011.2 mb 0.00 in0.0 mm 0.00 in/hr0.0 mm/hr 0.00 in0.0 mm
02:02 PM 31.3°F-0.4°C 28.7°F-1.8°C 90% 7.0 mph SW11.3 kmh SW 9.0 mph14.5 kmh 29.86 in1011.2 mb 0.00 in0.0 mm 0.00 in/hr0.0 mm/hr 0.00 in0.0 mm
02:17 PM 31.5°F-0.3°C 28.9°F-1.7°C 90% 8.0 mph S12.9 kmh S 9.0 mph14.5 kmh 29.86 in1011.2 mb 0.00 in0.0 mm 0.00 in/hr0.0 mm/hr 0.00 in0.0 mm
02:31 PM 31.5°F-0.3°C 28.6°F-1.9°C 89% 7.0 mph S11.3 kmh S 8.0 mph12.9 kmh 29.86 in1011.2 mb 0.00 in0.0 mm 0.00 in/hr0.0 mm/hr 0.00 in0.0 mm
02:46 PM 31.6°F-0.2°C 29.0°F-1.7°C 90% 8.0 mph SSW12.9 kmh SSW 10.0 mph16.1 kmh 29.86 in1011.2 mb 0.00 in0.0 mm 0.00 in/hr0.0 mm/hr 0.00 in0.0 mm
03:02 PM 31.4°F-0.3°C 29.1°F-1.6°C 91% 8.0 mph S12.9 kmh S 12.0 mph19.3 kmh 29.87 in1011.5 mb 0.00 in0.0 mm 0.00 in/hr0.0 mm/hr 0.00 in0.0 mm
03:16 PM 31.5°F-0.3°C 29.5°F-1.4°C 92% 8.0 mph S12.9 kmh S 11.0 mph17.7 kmh 29.87 in1011.5 mb 0.00 in0.0 mm 0.00 in/hr0.0 mm/hr 0.00 in0.0 mm
03:30 PM 31.5°F-0.3°C 29.5°F-1.4°C 92% 9.0 mph S14.5 kmh S 11.0 mph17.7 kmh 29.87 in1011.5 mb 0.00 in0.0 mm 0.00 in/hr0.0 mm/hr 0.00 in0.0 mm
03:46 PM 31.7°F-0.2°C 29.4°F-1.4°C 91% 6.0 mph S9.7 kmh S 10.0 mph16.1 kmh 29.88 in1011.9 mb 0.00 in0.0 mm 0.00 in/hr0.0 mm/hr 0.00 in0.0 mm
04:02 PM 31.8°F-0.1°C 29.2°F-1.6°C 90% 8.0 mph S12.9 kmh S 10.0 mph16.1 kmh 29.88 in1011.9 mb 0.00 in0.0 mm 0.00 in/hr0.0 mm/hr 0.00 in0.0 mm
04:17 PM 31.9°F-0.1°C 29.3°F-1.5°C 90% 7.0 mph SSW11.3 kmh SSW 8.0 mph12.9 kmh 29.89 in1012.2 mb 0.00 in0.0 mm 0.00 in/hr0.0 mm/hr 0.00 in0.0 mm
04:31 PM 31.9°F-0.1°C 29.3°F-1.5°C 90% 7.0 mph SSW11.3 kmh SSW 9.0 mph14.5 kmh 29.89 in1012.2 mb 0.00 in0.0 mm 0.00 in/hr0.0 mm/hr 0.00 in0.0 mm
04:46 PM 31.9°F-0.1°C 29.3°F-1.5°C 90% 7.0 mph SSW11.3 kmh SSW 9.0 mph14.5 kmh 29.89 in1012.2 mb 0.00 in0.0 mm 0.00 in/hr0.0 mm/hr 0.00 in0.0 mm
05:02 PM 32.0°F0.0°C 29.4°F-1.4°C 90% 6.0 mph SW9.7 kmh SW 8.0 mph12.9 kmh 29.89 in1012.2 mb 0.00 in0.0 mm 0.00 in/hr0.0 mm/hr 0.00 in0.0 mm
05:15 PM 31.9°F-0.1°C 29.3°F-1.5°C 90% 6.0 mph SSW9.7 kmh SSW 8.0 mph12.9 kmh 29.89 in1012.2 mb 0.00 in0.0 mm 0.00 in/hr0.0 mm/hr 0.00 in0.0 mm
05:31 PM 31.8°F-0.1°C 29.2°F-1.6°C 90% 8.0 mph SW12.9 kmh SW 9.0 mph14.5 kmh 29.90 in1012.5 mb 0.00 in0.0 mm 0.00 in/hr0.0 mm/hr 0.00 in0.0 mm
05:46 PM 31.8°F-0.1°C 29.2°F-1.6°C 90% 7.0 mph SW11.3 kmh SW 9.0 mph14.5 kmh 29.90 in1012.5 mb 0.00 in0.0 mm 0.00 in/hr0.0 mm/hr 0.00 in0.0 mm
06:02 PM 31.7°F-0.2°C 29.1°F-1.6°C 90% 6.0 mph SW9.7 kmh SW 8.0 mph12.9 kmh 29.90 in1012.5 mb 0.00 in0.0 mm 0.00 in/hr0.0 mm/hr 0.00 in0.0 mm
06:16 PM 31.7°F-0.2°C 29.1°F-1.6°C 90% 8.0 mph SW12.9 kmh SW 9.0 mph14.5 kmh 29.91 in1012.9 mb 0.00 in0.0 mm 0.00 in/hr0.0 mm/hr 0.00 in0.0 mm
06:31 PM 31.7°F-0.2°C 29.4°F-1.4°C 91% 7.0 mph SW11.3 kmh SW 9.0 mph14.5 kmh 29.91 in1012.9 mb 0.00 in0.0 mm 0.00 in/hr0.0 mm/hr 0.00 in0.0 mm
06:46 PM 31.7°F-0.2°C 29.4°F-1.4°C 91% 9.0 mph SW14.5 kmh SW 9.0 mph14.5 kmh 29.92 in1013.2 mb 0.00 in0.0 mm 0.00 in/hr0.0 mm/hr 0.00 in0.0 mm
07:02 PM 31.7°F-0.2°C 29.4°F-1.4°C 91% 7.0 mph SW11.3 kmh SW 9.0 mph14.5 kmh 29.93 in1013.5 mb 0.00 in0.0 mm 0.00 in/hr0.0 mm/hr 0.00 in0.0 mm
07:17 PM 31.7°F-0.2°C 29.4°F-1.4°C 91% 7.0 mph SW11.3 kmh SW 9.0 mph14.5 kmh 29.93 in1013.5 mb 0.00 in0.0 mm 0.00 in/hr0.0 mm/hr 0.00 in0.0 mm
07:31 PM 31.7°F-0.2°C 29.4°F-1.4°C 91% 7.0 mph SW11.3 kmh SW 9.0 mph14.5 kmh 29.94 in1013.9 mb 0.00 in0.0 mm 0.00 in/hr0.0 mm/hr 0.00 in0.0 mm
07:47 PM 31.7°F-0.2°C 29.7°F-1.3°C 92% 8.0 mph SW12.9 kmh SW 8.0 mph12.9 kmh 29.95 in1014.2 mb 0.00 in0.0 mm 0.00 in/hr0.0 mm/hr 0.00 in0.0 mm
08:03 PM 31.8°F-0.1°C 29.5°F-1.4°C 91% 6.0 mph SW9.7 kmh SW 7.0 mph11.3 kmh 29.95 in1014.2 mb 0.00 in0.0 mm 0.00 in/hr0.0 mm/hr 0.00 in0.0 mm
08:15 PM 31.8°F-0.1°C 29.5°F-1.4°C 91% 5.0 mph SW8.0 kmh SW 8.0 mph12.9 kmh 29.95 in1014.2 mb 0.00 in0.0 mm 0.00 in/hr0.0 mm/hr 0.00 in0.0 mm
08:31 PM 31.8°F-0.1°C 29.8°F-1.2°C 92% 6.0 mph SW9.7 kmh SW 8.0 mph12.9 kmh 29.95 in1014.2 mb 0.00 in0.0 mm 0.00 in/hr0.0 mm/hr 0.00 in0.0 mm
08:47 PM 31.8°F-0.1°C 29.5°F-1.4°C 91% 6.0 mph SW9.7 kmh SW 8.0 mph12.9 kmh 29.96 in1014.6 mb 0.00 in0.0 mm 0.00 in/hr0.0 mm/hr 0.00 in0.0 mm
09:00 PM 31.9°F-0.1°C 29.6°F-1.3°C 91% 6.0 mph SW9.7 kmh SW 8.0 mph12.9 kmh 29.96 in1014.6 mb 0.00 in0.0 mm 0.00 in/hr0.0 mm/hr 0.00 in0.0 mm
09:16 PM 31.8°F-0.1°C 29.8°F-1.2°C 92% 6.0 mph SW9.7 kmh SW 7.0 mph11.3 kmh 29.96 in1014.6 mb 0.00 in0.0 mm 0.00 in/hr0.0 mm/hr 0.00 in0.0 mm
09:31 PM 31.8°F-0.1°C 29.8°F-1.2°C 92% 6.0 mph SW9.7 kmh SW 8.0 mph12.9 kmh 29.97 in1014.9 mb 0.00 in0.0 mm 0.00 in/hr0.0 mm/hr 0.00 in0.0 mm
09:46 PM 31.8°F-0.1°C 29.8°F-1.2°C 92% 5.0 mph SW8.0 kmh SW 8.0 mph12.9 kmh 29.97 in1014.9 mb 0.00 in0.0 mm 0.00 in/hr0.0 mm/hr 0.00 in0.0 mm
10:02 PM 31.7°F-0.2°C 29.9°F-1.2°C 93% 5.0 mph SW8.0 kmh SW 7.0 mph11.3 kmh 29.98 in1015.2 mb 0.00 in0.0 mm 0.00 in/hr0.0 mm/hr 0.00 in0.0 mm
10:17 PM 31.9°F-0.1°C 30.1°F-1.1°C 93% 7.0 mph SW11.3 kmh SW 8.0 mph12.9 kmh 29.98 in1015.2 mb 0.00 in0.0 mm 0.00 in/hr0.0 mm/hr 0.00 in0.0 mm
10:30 PM 31.9°F-0.1°C 30.1°F-1.1°C 93% 6.0 mph SW9.7 kmh SW 8.0 mph12.9 kmh 29.99 in1015.6 mb 0.00 in0.0 mm 0.00 in/hr0.0 mm/hr 0.00 in0.0 mm
10:46 PM 31.8°F-0.1°C 30.0°F-1.1°C 93% 5.0 mph WSW8.0 kmh WSW 7.0 mph11.3 kmh 29.99 in1015.6 mb 0.00 in0.0 mm 0.00 in/hr0.0 mm/hr 0.00 in0.0 mm
11:00 PM 31.7°F-0.2°C 29.9°F-1.2°C 93% 7.0 mph SW11.3 kmh SW 7.0 mph11.3 kmh 29.99 in1015.6 mb 0.00 in0.0 mm 0.00 in/hr0.0 mm/hr 0.00 in0.0 mm
11:16 PM 31.6°F-0.2°C 30.1°F-1.1°C 94% 5.0 mph SW8.0 kmh SW 9.0 mph14.5 kmh 30.00 in1015.9 mb 0.00 in0.0 mm 0.00 in/hr0.0 mm/hr 0.00 in0.0 mm
11:31 PM 31.6°F-0.2°C 30.1°F-1.1°C 94% 6.0 mph SW9.7 kmh SW 8.0 mph12.9 kmh 30.00 in1015.9 mb 0.00 in0.0 mm 0.00 in/hr0.0 mm/hr 0.00 in0.0 mm
11:47 PM 31.6°F-0.2°C 30.1°F-1.1°C 94% 5.0 mph SW8.0 kmh SW 9.0 mph14.5 kmh 30.01 in1016.3 mb 0.00 in0.0 mm 0.00 in/hr0.0 mm/hr 0.00 in0.0 mm